Hovedside
METAR-TAF:

METAR-TAF

Lufthavner :

Ålesund lufthavn. Vigra

Ålesund, Norge

breddegrad: 62-34N, lengdegrad: 006-07E, høyde over havet: 2 m

Gjeldene værobservasjon

Denne rapporten ble laget for 40 minutter siden, klokken 05:50 UTC
Vind 10 kt fra Sør-sørøst
Temperatur 2°C
Luftfuktighet 75%
Trykk 1019 hPa
Sikt 10 km eller mer
ingen skyer under 1500 m og ingen bygeskyer

METAR: ENAL 150550Z 15010KT CAVOK 02/M02 Q1019

Tid: 07:30 (06:30 UTC)

Varsel

Denne rapporten ble laget for 1 time og 30 minutter siden, klokken 05:00 UTC
Varsel gyldig fra 15. klokken 06 UTC til 15. klokken 15 UTC
Vind 8 kt fra Sør-sørøst
Sikt 10 km eller mer
Få skyer i en høyde av 3000 ft
Midlertidig
fra 15. klokken 09 UTC til 15. klokken 15 UTC
Brutte skyer i en høyde av 2000 ft, Bygeskyer.

TAF: ENAL 150500Z 1506/1515 15008KT 9999 FEW030 TEMPO 1509/1515 BKN020CB

Værobservasjoner og værvarsel for over 4000 flyplasser (METAR- og TAF-rapporter).

Tilgjengelige stasjoner er representert av de røde og gule prikkene på kartet.

Hold musepekeren over prikken for å se navnet på stasjonen.

Klikk så for å se værobservasjoner og -varsler.

For å forandre kartet kan du klikke på den grønne knappen med svart kryss for å zoome inn, på den grønne knappen med strek for å zoome ut, eller på de grønne pilene for å se tilstøtende kart.


METAR-TAF: